createdAt,value
2018-03-15T00:01:31.503Z,100973
2018-03-15T00:04:00.723Z,100976
2018-03-15T00:06:29.085Z,100972
2018-03-15T00:08:58.123Z,100977
2018-03-15T00:11:26.447Z,100979
2018-03-15T00:13:55.529Z,100975
2018-03-15T00:16:24.681Z,100985
2018-03-15T00:18:52.984Z,100982
2018-03-15T00:21:21.409Z,100980
2018-03-15T00:23:49.647Z,100983
2018-03-15T00:26:17.868Z,100981
2018-03-15T00:28:46.088Z,100977
2018-03-15T00:31:14.434Z,100975
2018-03-15T00:33:42.697Z,100981
2018-03-15T00:36:25.914Z,100977
2018-03-15T00:38:54.315Z,100965
2018-03-15T00:41:36.135Z,100958
2018-03-15T00:44:04.500Z,100953
2018-03-15T00:46:33.674Z,100958
2018-03-15T00:55:27.061Z,100958
2018-03-15T00:57:55.426Z,100968
2018-03-15T01:03:40.399Z,100943
2018-03-15T01:06:15.811Z,100943
2018-03-15T01:08:46.412Z,100943
2018-03-15T01:11:14.722Z,100947
2018-03-15T01:13:43.928Z,100946
2018-03-15T01:16:43.249Z,100943
2018-03-15T01:19:15.689Z,100948
2018-03-15T01:21:44.132Z,100948
2018-03-15T01:24:33.846Z,100939
2018-03-15T01:30:07.478Z,100926
2018-03-15T01:36:21.271Z,100914
2018-03-15T01:44:47.389Z,100918
2018-03-15T01:47:31.907Z,100910
2018-03-15T01:50:00.187Z,100899
2018-03-15T01:52:29.239Z,100903
2018-03-15T01:54:58.213Z,100907
2018-03-15T01:57:34.974Z,100903
2018-03-15T02:00:04.258Z,100910
2018-03-15T02:05:44.752Z,100896
2018-03-15T02:08:13.010Z,100899
2018-03-15T02:10:41.350Z,100890
2018-03-15T02:13:13.758Z,100883
2018-03-15T02:15:42.722Z,100875
2018-03-15T02:18:11.262Z,100890
2018-03-15T02:20:39.565Z,100869
2018-03-15T02:23:11.572Z,100881
2018-03-15T02:25:52.338Z,100880
2018-03-15T02:28:20.616Z,100876
2018-03-15T02:30:48.835Z,100871
2018-03-15T02:33:33.432Z,100867
2018-03-15T02:36:02.611Z,100867
2018-03-15T02:38:30.889Z,100860
2018-03-15T02:41:27.317Z,100856
2018-03-15T02:43:55.749Z,100846
2018-03-15T02:46:23.938Z,100854
2018-03-15T02:48:52.164Z,100854
2018-03-15T02:51:40.738Z,100852
2018-03-15T02:54:13.214Z,100852
2018-03-15T02:56:41.634Z,100859
2018-03-15T02:59:12.034Z,100848
2018-03-15T03:01:46.589Z,100844
2018-03-15T03:04:20.458Z,100835
2018-03-15T03:06:48.837Z,100843
2018-03-15T03:12:40.364Z,100851
2018-03-15T03:18:32.987Z,100855
2018-03-15T03:21:03.668Z,100860
2018-03-15T03:23:31.951Z,100863
2018-03-15T03:26:00.939Z,100863
2018-03-15T03:28:30.110Z,100861
2018-03-15T03:31:41.143Z,100868
2018-03-15T03:34:11.160Z,100866
2018-03-15T03:36:42.609Z,100878
2018-03-15T03:39:10.971Z,100876
2018-03-15T03:42:04.326Z,100878
2018-03-15T03:44:32.670Z,100869
2018-03-15T03:47:01.797Z,100865
2018-03-15T03:49:30.532Z,100867
2018-03-15T03:52:11.736Z,100870
2018-03-15T03:54:40.808Z,100866
2018-03-15T03:57:17.909Z,100859
2018-03-15T04:00:01.134Z,100861
2018-03-15T04:02:31.113Z,100849
2018-03-15T04:04:59.432Z,100856
2018-03-15T04:07:34.321Z,100855
2018-03-15T04:10:06.908Z,100872
2018-03-15T04:12:35.251Z,100868
2018-03-15T04:15:04.231Z,100864
2018-03-15T04:17:32.547Z,100866
2018-03-15T04:20:00.739Z,100861
2018-03-15T04:22:29.701Z,100865
2018-03-15T04:24:58.779Z,100857
2018-03-15T04:27:27.121Z,100854
2018-03-15T04:29:55.487Z,100853
2018-03-15T04:32:23.663Z,100852
2018-03-15T04:34:52.748Z,100845
2018-03-15T04:37:20.925Z,100848
2018-03-15T04:39:49.209Z,100845
2018-03-15T04:42:17.419Z,100847
2018-03-15T04:44:45.587Z,100854
2018-03-15T04:47:26.095Z,100851
2018-03-15T04:49:54.398Z,100849
2018-03-15T04:52:22.610Z,100852
2018-03-15T04:54:51.599Z,100838
2018-03-15T04:57:21.627Z,100853
2018-03-15T04:59:49.943Z,100843
2018-03-15T05:02:18.127Z,100844
2018-03-15T05:04:46.807Z,100838
2018-03-15T05:07:37.661Z,100839
2018-03-15T05:10:05.957Z,100839
2018-03-15T05:12:34.635Z,100836
2018-03-15T05:15:04.974Z,100839
2018-03-15T05:17:33.385Z,100839
2018-03-15T05:20:02.462Z,100835
2018-03-15T05:22:30.686Z,100830
2018-03-15T05:24:59.679Z,100830
2018-03-15T05:27:30.371Z,100823
2018-03-15T05:29:59.424Z,100838
2018-03-15T05:32:27.635Z,100844
2018-03-15T05:38:08.557Z,100822
2018-03-15T05:40:37.702Z,100832
2018-03-15T05:43:05.949Z,100830
2018-03-15T05:45:41.507Z,100819
2018-03-15T05:48:14.731Z,100815
2018-03-15T05:50:43.146Z,100810
2018-03-15T05:56:18.552Z,100815
2018-03-15T05:58:47.141Z,100797
2018-03-15T06:01:25.595Z,100798
2018-03-15T06:03:54.387Z,100802
2018-03-15T06:06:22.810Z,100800
2018-03-15T06:12:15.759Z,100797
2018-03-15T06:14:45.238Z,100797
2018-03-15T06:17:28.704Z,100802
2018-03-15T06:20:05.033Z,100805
2018-03-15T06:22:34.292Z,100802
2018-03-15T06:25:08.755Z,100809
2018-03-15T06:27:46.980Z,100804
2018-03-15T06:30:15.400Z,100799
2018-03-15T06:32:43.764Z,100810
2018-03-15T06:35:21.384Z,100811
2018-03-15T06:37:51.881Z,100808
2018-03-15T06:40:20.331Z,100811
2018-03-15T06:42:49.401Z,100807
2018-03-15T06:52:51.037Z,100813
2018-03-15T06:55:20.226Z,100803
2018-03-15T06:57:54.434Z,100792
2018-03-15T07:00:25.147Z,100806
2018-03-15T07:02:53.335Z,100808
2018-03-15T07:05:41.739Z,100813
2018-03-15T07:08:17.098Z,100819
2018-03-15T07:10:46.305Z,100802
2018-03-15T07:22:57.584Z,100824
2018-03-15T07:25:26.693Z,100814
2018-03-15T07:27:54.905Z,100812
2018-03-15T07:30:24.351Z,100806
2018-03-15T07:32:53.200Z,100811
2018-03-15T07:35:43.642Z,100801
2018-03-15T07:38:12.092Z,100807
2018-03-15T07:40:46.032Z,100793
2018-03-15T07:57:09.140Z,100794
2018-03-15T08:02:35.168Z,100779
2018-03-15T08:05:03.446Z,100771
2018-03-15T08:07:32.840Z,100776
2018-03-15T08:10:01.090Z,100769
2018-03-15T08:12:29.339Z,100769
2018-03-15T08:17:37.553Z,100757
2018-03-15T08:20:07.132Z,100763
2018-03-15T08:22:35.539Z,100749
2018-03-15T08:25:03.850Z,100757
2018-03-15T08:27:36.227Z,100753
2018-03-15T08:30:05.350Z,100742
2018-03-15T08:32:42.318Z,100760
2018-03-15T08:35:30.600Z,100747
2018-03-15T08:37:59.095Z,100740
2018-03-15T08:40:27.516Z,100739
2018-03-15T08:43:08.348Z,100734
2018-03-15T08:58:34.882Z,100749
2018-03-15T09:01:05.613Z,100730
2018-03-15T09:04:02.618Z,100736
2018-03-15T09:06:31.088Z,100736
2018-03-15T09:11:41.594Z,100725
2018-03-15T09:14:10.783Z,100725
2018-03-15T09:16:40.512Z,100722
2018-03-15T09:19:12.547Z,100725
2018-03-15T09:21:42.013Z,100726
2018-03-15T09:24:10.315Z,100724
2018-03-15T09:26:47.131Z,100719
2018-03-15T09:29:19.064Z,100712
2018-03-15T09:31:51.304Z,100711
2018-03-15T09:34:19.635Z,100703
2018-03-15T09:36:47.950Z,100692
2018-03-15T09:39:33.549Z,100693
2018-03-15T09:42:05.218Z,100692
2018-03-15T09:44:33.713Z,100688
2018-03-15T09:47:13.118Z,100691
2018-03-15T09:49:44.765Z,100684
2018-03-15T09:52:13.254Z,100686
2018-03-15T10:22:46.432Z,100678
2018-03-15T10:25:36.559Z,100677
2018-03-15T10:34:32.764Z,100672
2018-03-15T10:43:06.420Z,100674
2018-03-15T10:45:34.718Z,100677
2018-03-15T10:48:03.025Z,100677
2018-03-15T10:50:44.623Z,100677
2018-03-15T10:53:12.864Z,100679
2018-03-15T10:55:52.496Z,100682
2018-03-15T10:58:20.741Z,100669
2018-03-15T11:01:01.599Z,100677
2018-03-15T11:06:11.108Z,100678
2018-03-15T11:08:39.424Z,100678
2018-03-15T11:11:07.661Z,100671
2018-03-15T11:13:47.300Z,100665
2018-03-15T11:16:15.775Z,100666
2018-03-15T11:25:23.676Z,100660
2018-03-15T11:27:56.196Z,100661
2018-03-15T11:30:30.102Z,100658
2018-03-15T11:33:02.183Z,100659
2018-03-15T11:35:44.151Z,100646
2018-03-15T11:38:12.801Z,100651
2018-03-15T11:43:43.464Z,100658
2018-03-15T11:50:51.459Z,100656
2018-03-15T11:53:28.848Z,100650
2018-03-15T11:56:03.581Z,100657
2018-03-15T11:58:32.879Z,100651
2018-03-15T12:01:05.125Z,100656
2018-03-15T12:03:45.177Z,100648
2018-03-15T12:06:13.593Z,100645
2018-03-15T12:08:42.183Z,100641
2018-03-15T13:55:21.510Z,100520
2018-03-15T15:12:25.327Z,100468
2018-03-15T15:15:28.936Z,100466
2018-03-15T15:17:57.340Z,100461
2018-03-15T15:20:26.608Z,100475
2018-03-15T15:23:03.025Z,100471
2018-03-15T15:28:55.473Z,100462
2018-03-15T15:31:30.447Z,100471
2018-03-15T15:34:05.544Z,100472
2018-03-15T15:36:34.613Z,100471
2018-03-15T15:39:03.017Z,100469
2018-03-15T15:41:31.383Z,100471
2018-03-15T15:44:00.351Z,100477
2018-03-15T15:46:31.721Z,100479
2018-03-15T15:49:01.737Z,100487
2018-03-15T15:51:31.141Z,100488
2018-03-15T15:54:06.541Z,100485
2018-03-15T15:56:35.188Z,100485
2018-03-15T15:59:06.745Z,100484
2018-03-15T16:30:23.701Z,100516
2018-03-15T16:32:52.516Z,100498
2018-03-15T16:35:22.419Z,100503
2018-03-15T16:37:56.900Z,100498
2018-03-15T16:40:29.498Z,100499
2018-03-15T16:43:02.159Z,100503
2018-03-15T16:45:32.246Z,100515
2018-03-15T16:50:45.998Z,100516
2018-03-15T16:53:14.850Z,100521
2018-03-15T16:55:44.908Z,100512
2018-03-15T16:58:13.276Z,100523
2018-03-15T17:00:53.640Z,100521
2018-03-15T17:03:24.175Z,100521
2018-03-15T17:05:52.710Z,100529
2018-03-15T17:08:20.945Z,100525
2018-03-15T17:10:49.231Z,100518
2018-03-15T17:13:17.507Z,100536
2018-03-15T18:06:44.351Z,100549
2018-03-15T18:27:17.882Z,100535
2018-03-15T18:29:48.672Z,100532
2018-03-15T18:32:21.733Z,100543
2018-03-15T18:35:28.684Z,100534
2018-03-15T18:38:01.178Z,100527
2018-03-15T19:12:30.920Z,100515
2018-03-15T19:15:12.965Z,100516
2018-03-15T19:17:57.892Z,100523
2018-03-15T20:47:35.799Z,100576
2018-03-15T20:50:17.295Z,100578
2018-03-15T21:19:05.836Z,100589
2018-03-15T21:21:49.348Z,100589
2018-03-15T21:30:07.204Z,100592
2018-03-15T21:32:50.867Z,100583
2018-03-15T21:35:48.368Z,100605
2018-03-15T21:38:17.450Z,100604
2018-03-15T21:40:45.743Z,100595
2018-03-15T21:43:13.978Z,100597
2018-03-15T21:45:43.054Z,100593
2018-03-15T21:48:11.499Z,100589
2018-03-15T21:50:39.730Z,100583
2018-03-15T21:53:10.780Z,100592
2018-03-15T21:58:39.003Z,100593
2018-03-15T22:04:31.880Z,100580
2018-03-15T22:07:05.287Z,100577
2018-03-15T22:12:51.306Z,100581
2018-03-15T22:15:44.218Z,100578
2018-03-15T22:18:14.711Z,100589
2018-03-15T22:20:44.062Z,100579
2018-03-15T22:23:25.655Z,100573
2018-03-15T22:26:10.217Z,100592
2018-03-15T22:29:01.991Z,100587
2018-03-15T22:34:27.583Z,100578
2018-03-15T22:36:55.999Z,100573
2018-03-15T22:39:30.725Z,100579
2018-03-15T22:42:00.055Z,100567
2018-03-15T22:47:32.690Z,100573
2018-03-15T22:50:06.590Z,100567
2018-03-15T22:52:35.040Z,100564
2018-03-15T22:55:09.392Z,100570
2018-03-15T23:00:38.474Z,100559
2018-03-15T23:06:49.835Z,100563
2018-03-15T23:09:44.069Z,100559
2018-03-15T23:12:32.570Z,100561
2018-03-15T23:18:20.238Z,100568
